Time;durP1;ratioP1;P1;durP2;ratioP2;P2;SDS_P1;SDS_P2;PMS_P1;PMS_P2;Temp;Humidity;BMP_temperature;BMP_pressure;BME280_temperature;BME280_humidity;BME280_pressure;Samples;Min_cycle;Max_cycle;Signal;HPM_P1;HPM_P2
2022/06/19 00:01:42;;;;;;;8.53;7.83;;;23.70;1.00;;;;;;5072732;28;20466;-79
2022/06/19 00:04:17;;;;;;;8.83;8.07;;;23.70;1.00;;;;;;5069237;28;20467;-78
2022/06/19 00:06:47;;;;;;;7.73;7.13;;;23.70;1.00;;;;;;5068646;28;20599;-78
2022/06/19 00:09:16;;;;;;;8.70;7.90;;;23.60;1.00;;;;;;5071426;28;20460;-85
2022/06/19 00:11:44;;;;;;;10.17;8.60;;;23.60;1.00;;;;;;5074693;27;20434;-86
2022/06/19 00:14:17;;;;;;;9.53;8.70;;;23.50;1.00;;;;;;5072977;28;20428;-82
2022/06/19 00:16:44;;;;;;;9.50;8.80;;;23.40;1.00;;;;;;5067373;28;20546;-78
2022/06/19 00:19:16;;;;;;;9.80;8.97;;;23.40;1.00;;;;;;5072705;28;20439;-84
2022/06/19 00:21:44;;;;;;;8.53;7.83;;;23.30;1.00;;;;;;5069922;28;20452;-85
2022/06/19 00:24:16;;;;;;;10.27;8.70;;;23.30;1.00;;;;;;5059620;28;20515;-79
2022/06/19 00:26:44;;;;;;;8.80;7.90;;;23.30;1.00;;;;;;5073703;28;20460;-81
2022/06/19 00:29:15;;;;;;;9.63;8.73;;;23.20;1.00;;;;;;5072439;28;20428;-84
2022/06/19 00:31:42;;;;;;;9.43;8.63;;;23.10;1.00;;;;;;5073247;28;20823;-86
2022/06/19 00:34:18;;;;;;;8.37;7.70;;;23.00;1.00;;;;;;5070805;28;20589;-82
2022/06/19 00:36:49;;;;;;;8.97;7.90;;;23.00;1.00;;;;;;5065419;28;21392;-86
2022/06/19 00:39:20;;;;;;;9.43;8.70;;;23.00;1.00;;;;;;5057799;28;20493;-82
2022/06/19 00:41:53;;;;;;;9.70;8.60;;;22.90;1.00;;;;;;5067493;28;20491;-85
2022/06/19 00:44:21;;;;;;;9.23;8.43;;;22.90;1.00;;;;;;5067934;28;20942;-84
2022/06/19 00:46:55;;;;;;;8.30;7.70;;;22.90;1.00;;;;;;5067068;28;20452;-87
2022/06/19 00:49:27;;;;;;;8.53;7.83;;;22.90;1.00;;;;;;5065078;28;20559;-85
2022/06/19 00:52:05;;;;;;;8.70;8.00;;;22.90;1.00;;;;;;5066841;28;20439;-84
2022/06/19 00:54:43;;;;;;;9.50;8.70;;;22.80;1.00;;;;;;5071221;28;20437;-81
2022/06/19 00:57:17;;;;;;;9.53;8.57;;;22.80;1.00;;;;;;5066366;28;21327;-81
2022/06/19 00:59:48;;;;;;;8.90;8.10;;;22.70;1.00;;;;;;5066858;28;20451;-85
2022/06/19 01:02:16;;;;;;;9.23;8.33;;;22.70;1.00;;;;;;5067322;28;20408;-85
2022/06/19 01:04:50;;;;;;;8.77;8.07;;;22.60;1.00;;;;;;5070206;27;20538;-85
2022/06/19 01:07:18;;;;;;;9.17;8.47;;;22.60;1.00;;;;;;5068814;28;20447;-85
2022/06/19 01:09:47;;;;;;;8.93;8.33;;;22.50;1.00;;;;;;5071272;28;20521;-83
2022/06/19 01:12:17;;;;;;;9.03;8.30;;;22.50;1.00;;;;;;5067270;28;20457;-85
2022/06/19 01:14:46;;;;;;;9.10;8.33;;;22.50;1.00;;;;;;5066163;28;20846;-84
2022/06/19 01:17:16;;;;;;;10.53;9.53;;;22.50;1.00;;;;;;5067112;28;20843;-85
2022/06/19 01:19:46;;;;;;;9.93;9.10;;;22.40;1.00;;;;;;5070730;28;20455;-85
2022/06/19 01:22:25;;;;;;;10.07;9.07;;;22.30;1.00;;;;;;5070038;28;20513;-86
2022/06/19 01:25:05;;;;;;;13.57;9.10;;;22.30;1.00;;;;;;5066123;28;23774;-86
2022/06/19 01:30:26;;;;;;;9.30;8.60;;;22.30;1.00;;;;;;5067803;28;20451;-86
2022/06/19 01:32:53;;;;;;;10.67;9.87;;;22.30;1.00;;;;;;5065229;28;20480;-86
2022/06/19 01:35:23;;;;;;;9.43;8.53;;;22.20;1.00;;;;;;5065447;28;20478;-86
2022/06/19 01:37:55;;;;;;;9.77;8.87;;;22.20;1.00;;;;;;5060989;28;20456;-84
2022/06/19 01:40:25;;;;;;;9.53;8.60;;;22.20;1.00;;;;;;5064953;28;20575;-84
2022/06/19 01:42:55;;;;;;;9.90;9.20;;;22.10;1.00;;;;;;5063094;28;20971;-86
2022/06/19 01:45:24;;;;;;;9.57;8.67;;;22.10;1.00;;;;;;5066181;28;21005;-86
2022/06/19 01:47:51;;;;;;;9.93;8.90;;;22.00;1.00;;;;;;5062059;28;20423;-85
2022/06/19 01:50:23;;;;;;;9.47;8.60;;;22.00;1.00;;;;;;5071427;28;20471;-85
2022/06/19 01:52:55;;;;;;;9.80;8.90;;;21.90;1.00;;;;;;5064884;28;20519;-84
2022/06/19 01:55:28;;;;;;;9.43;8.63;;;21.90;1.00;;;;;;5067433;28;21323;-85
2022/06/19 01:57:57;;;;;;;9.47;8.53;;;21.80;1.00;;;;;;5063577;28;20459;-87
2022/06/19 02:00:27;;;;;;;9.50;8.80;;;21.70;1.00;;;;;;5063198;28;20531;-85
2022/06/19 02:02:59;;;;;;;10.20;9.20;;;21.70;1.00;;;;;;5067803;28;20432;-85
2022/06/19 02:05:26;;;;;;;9.43;8.73;;;21.60;1.00;;;;;;5062510;28;20462;-86
2022/06/19 02:07:53;;;;;;;9.90;8.90;;;21.60;1.00;;;;;;5073217;28;20474;-86
2022/06/19 02:10:23;;;;;;;9.40;8.60;;;21.60;1.00;;;;;;5064139;28;20931;-87
2022/06/19 02:12:51;;;;;;;9.10;8.23;;;21.60;1.00;;;;;;5064697;28;20451;-84
2022/06/19 02:15:19;;;;;;;9.93;9.03;;;21.60;1.00;;;;;;5065542;28;20557;-86
2022/06/19 02:17:49;;;;;;;9.43;8.63;;;21.60;1.00;;;;;;5063030;28;20443;-87
2022/06/19 02:20:17;;;;;;;9.47;8.53;;;21.60;1.00;;;;;;5076360;28;20459;-86
2022/06/19 02:22:44;;;;;;;9.50;8.60;;;21.60;1.00;;;;;;5066150;28;20860;-86
2022/06/19 02:25:16;;;;;;;13.73;10.03;;;21.60;1.00;;;;;;5067809;28;20483;-86
2022/06/19 02:27:45;;;;;;;10.20;9.37;;;21.60;1.00;;;;;;5063702;28;21009;-84
2022/06/19 02:30:15;;;;;;;12.10;8.40;;;21.60;1.00;;;;;;5058145;28;20440;-85
2022/06/19 02:32:46;;;;;;;11.20;10.10;;;21.60;1.00;;;;;;5080497;28;20510;-83
2022/06/19 02:35:17;;;;;;;10.60;9.80;;;21.60;1.00;;;;;;5066996;28;20473;-79
2022/06/19 02:37:52;;;;;;;9.50;8.67;;;21.60;1.00;;;;;;5066484;28;20487;-81
2022/06/19 02:40:33;;;;;;;10.13;8.07;;;21.60;1.00;;;;;;5073421;28;21341;-85
2022/06/19 02:43:01;;;;;;;8.87;8.07;;;21.60;1.00;;;;;;5065579;28;20465;-85
2022/06/19 02:45:33;;;;;;;9.37;8.77;;;21.60;1.00;;;;;;5079728;28;20559;-85
2022/06/19 02:48:02;;;;;;;10.13;9.33;;;21.60;1.00;;;;;;5053659;28;20471;-84
2022/06/19 02:50:35;;;;;;;9.90;9.10;;;21.70;1.00;;;;;;5073454;28;20427;-79
2022/06/19 02:53:04;;;;;;;9.23;7.93;;;21.70;1.00;;;;;;5066637;28;20554;-81
2022/06/19 02:55:34;;;;;;;10.43;9.43;;;21.70;1.00;;;;;;5072106;28;20428;-82
2022/06/19 02:58:03;;;;;;;8.67;7.97;;;21.60;1.00;;;;;;5069485;28;20463;-81
2022/06/19 03:00:30;;;;;;;9.23;8.43;;;21.60;1.00;;;;;;5073470;28;20461;-86
2022/06/19 03:03:05;;;;;;;9.17;8.43;;;21.60;1.00;;;;;;5078563;28;20423;-87
2022/06/19 03:05:32;;;;;;;9.63;8.70;;;21.50;1.00;;;;;;5073627;28;20496;-80
2022/06/19 03:08:04;;;;;;;9.73;8.83;;;21.50;1.00;;;;;;5074764;28;20407;-80
2022/06/19 03:10:31;;;;;;;9.37;8.73;;;21.50;1.00;;;;;;5072686;28;21066;-79
2022/06/19 03:13:05;;;;;;;9.83;9.13;;;21.60;1.00;;;;;;5071204;28;20464;-85
2022/06/19 03:15:33;;;;;;;9.43;8.70;;;21.60;1.00;;;;;;5074496;28;20471;-82
2022/06/19 03:18:04;;;;;;;10.17;8.90;;;21.60;1.00;;;;;;5072394;28;20532;-82
2022/06/19 03:20:33;;;;;;;9.03;8.33;;;21.60;1.00;;;;;;5066095;28;21451;-83
2022/06/19 03:23:04;;;;;;;9.30;8.50;;;21.60;1.00;;;;;;5071269;28;20463;-77
2022/06/19 03:25:31;;;;;;;10.40;9.40;;;21.60;1.00;;;;;;5077001;28;20551;-85
2022/06/19 03:28:03;;;;;;;9.80;9.10;;;21.70;1.00;;;;;;5074188;28;20463;-78
2022/06/19 03:30:30;;;;;;;9.60;8.90;;;21.70;1.00;;;;;;5073997;28;20476;-84
2022/06/19 03:33:03;;;;;;;9.27;8.60;;;21.70;1.00;;;;;;5076339;28;20489;-84
2022/06/19 03:35:30;;;;;;;9.57;8.83;;;21.80;1.00;;;;;;5072113;28;20571;-83
2022/06/19 03:38:05;;;;;;;10.80;9.67;;;21.80;1.00;;;;;;5072340;28;20583;-82
2022/06/19 03:40:32;;;;;;;10.43;9.50;;;21.80;1.00;;;;;;5070733;28;21204;-79
2022/06/19 03:43:09;;;;;;;11.13;10.00;;;21.90;1.00;;;;;;5068853;28;20431;-78
2022/06/19 03:45:36;;;;;;;10.20;9.30;;;21.90;1.00;;;;;;5072521;28;21057;-84
2022/06/19 03:48:07;;;;;;;10.30;9.30;;;22.00;1.00;;;;;;5076305;28;20466;-77
2022/06/19 03:50:33;;;;;;;9.47;8.77;;;21.90;1.00;;;;;;5077175;28;20457;-85
2022/06/19 03:53:04;;;;;;;10.50;9.60;;;21.90;1.00;;;;;;5074660;28;20413;-77
2022/06/19 03:55:33;;;;;;;10.80;9.80;;;21.80;1.00;;;;;;5073273;28;20477;-81
2022/06/19 03:58:04;;;;;;;9.80;8.90;;;21.90;1.00;;;;;;5070862;28;20430;-78
2022/06/19 04:00:31;;;;;;;10.27;9.47;;;21.90;1.00;;;;;;5067930;28;20466;-82
2022/06/19 04:03:04;;;;;;;10.20;9.50;;;21.90;1.00;;;;;;5068418;28;20918;-85
2022/06/19 04:05:33;;;;;;;10.47;9.63;;;22.00;1.00;;;;;;5070128;28;20470;-82
2022/06/19 04:08:05;;;;;;;9.47;8.73;;;22.10;1.00;;;;;;5074733;28;20491;-84
2022/06/19 04:10:32;;;;;;;10.97;9.97;;;22.10;1.00;;;;;;5075444;28;20486;-87
2022/06/19 04:13:08;;;;;;;10.83;10.10;;;22.10;1.00;;;;;;5071462;28;20435;-80
2022/06/19 04:15:35;;;;;;;10.53;9.53;;;22.10;1.00;;;;;;5067451;28;20532;-82
2022/06/19 04:18:04;;;;;;;11.60;10.70;;;22.10;1.00;;;;;;5066477;28;20442;-79
2022/06/19 04:20:31;;;;;;;10.33;9.53;;;22.20;1.00;;;;;;5067876;28;20472;-81
2022/06/19 04:23:06;;;;;;;10.77;9.97;;;22.20;1.00;;;;;;5066559;28;20959;-78
2022/06/19 04:25:33;;;;;;;11.57;10.50;;;22.20;1.00;;;;;;5073144;28;20443;-84
2022/06/19 04:28:03;;;;;;;10.70;9.87;;;22.30;1.00;;;;;;5066533;28;20510;-78
2022/06/19 04:30:30;;;;;;;11.20;10.30;;;22.30;1.00;;;;;;5069496;28;20470;-82
2022/06/19 04:33:06;;;;;;;11.37;10.47;;;22.30;1.00;;;;;;5074178;28;20506;-86
2022/06/19 04:35:34;;;;;;;11.30;10.30;;;22.40;1.00;;;;;;5074835;28;20475;-78
2022/06/19 04:38:05;;;;;;;10.97;10.07;;;22.40;1.00;;;;;;5073087;28;20425;-86
2022/06/19 04:40:34;;;;;;;12.13;11.13;;;22.40;1.00;;;;;;5076824;28;20464;-85
2022/06/19 04:43:06;;;;;;;12.07;11.07;;;22.30;1.00;;;;;;5069894;28;20475;-79
2022/06/19 04:45:33;;;;;;;12.23;10.90;;;22.30;1.00;;;;;;5073537;28;20517;-79
2022/06/19 04:48:05;;;;;;;12.13;10.93;;;22.30;1.00;;;;;;5074570;28;20460;-87
2022/06/19 04:50:32;;;;;;;12.13;11.13;;;22.40;1.00;;;;;;5069347;28;21060;-78
2022/06/19 04:53:04;;;;;;;12.00;10.60;;;22.40;1.00;;;;;;5071211;28;20490;-87
2022/06/19 04:55:32;;;;;;;13.83;12.40;;;22.40;1.00;;;;;;5073342;28;20482;-83
2022/06/19 04:58:05;;;;;;;12.97;11.93;;;22.40;1.00;;;;;;5066549;28;20427;-88
2022/06/19 05:00:32;;;;;;;12.93;11.83;;;22.50;1.00;;;;;;5075391;28;20455;-86
2022/06/19 05:03:08;;;;;;;12.80;11.80;;;22.50;1.00;;;;;;5068543;28;20451;-83
2022/06/19 05:05:35;;;;;;;15.97;14.43;;;22.50;1.00;;;;;;5069126;28;20495;-78
2022/06/19 05:08:04;;;;;;;12.30;11.33;;;22.60;1.00;;;;;;5071758;28;20415;-84
2022/06/19 05:10:32;;;;;;;12.23;11.27;;;22.70;1.00;;;;;;5072374;28;20506;-82
2022/06/19 05:13:06;;;;;;;18.27;12.50;;;22.80;1.00;;;;;;5070336;28;20446;-82
2022/06/19 05:15:33;;;;;;;12.37;11.50;;;22.90;1.00;;;;;;5071592;28;20467;-84
2022/06/19 05:18:09;;;;;;;12.93;11.77;;;22.90;1.00;;;;;;5074644;28;20411;-83
2022/06/19 05:20:42;;;;;;;11.70;10.80;;;23.10;1.00;;;;;;5070159;28;20900;-78
2022/06/19 05:23:10;;;;;;;13.90;12.50;;;23.10;1.00;;;;;;5071543;28;20514;-86
2022/06/19 05:25:42;;;;;;;12.33;11.40;;;23.20;1.00;;;;;;5074177;28;20459;-86
2022/06/19 05:28:12;;;;;;;14.20;13.10;;;23.30;1.00;;;;;;5075284;28;20434;-87
2022/06/19 05:30:46;;;;;;;12.80;11.70;;;23.30;1.00;;;;;;5065319;28;20439;-85
2022/06/19 05:33:12;;;;;;;12.47;11.27;;;23.40;1.00;;;;;;5072911;28;22090;-84
2022/06/19 05:35:45;;;;;;;13.43;12.03;;;23.50;1.00;;;;;;5073222;28;20509;-85
2022/06/19 05:38:12;;;;;;;11.90;11.03;;;23.60;1.00;;;;;;5075349;28;20451;-83
2022/06/19 05:41:04;;;;;;;12.80;11.63;;;23.70;1.00;;;;;;5072992;28;20485;-87
2022/06/19 05:43:35;;;;;;;11.67;10.77;;;23.80;1.00;;;;;;5057198;28;20528;-82
2022/06/19 05:46:06;;;;;;;12.30;10.73;;;24.00;1.00;;;;;;5069909;28;20439;-84
2022/06/19 05:48:34;;;;;;;12.33;11.10;;;24.20;1.00;;;;;;5071206;28;20479;-85
2022/06/19 05:51:07;;;;;;;11.93;10.80;;;24.30;1.00;;;;;;5073019;28;20416;-84
2022/06/19 05:53:37;;;;;;;13.03;11.70;;;24.50;1.00;;;;;;5069760;28;20532;-85
2022/06/19 05:56:06;;;;;;;12.73;11.63;;;24.60;1.00;;;;;;5070749;28;20434;-83
2022/06/19 05:58:34;;;;;;;11.83;10.63;;;24.70;1.00;;;;;;5062536;28;20443;-87
2022/06/19 06:01:05;;;;;;;11.40;10.30;;;24.90;1.00;;;;;;5072930;28;20483;-86
2022/06/19 06:03:33;;;;;;;10.67;9.83;;;25.00;1.00;;;;;;5069498;28;20455;-85
2022/06/19 06:06:06;;;;;;;12.57;10.63;;;25.10;1.00;;;;;;5066227;28;20446;-79
2022/06/19 06:08:36;;;;;;;15.30;10.43;;;25.20;1.00;;;;;;5065959;28;20814;-79
2022/06/19 06:11:08;;;;;;;10.40;9.40;;;25.40;1.00;;;;;;5065998;28;20431;-80
2022/06/19 06:13:35;;;;;;;12.60;10.40;;;25.60;1.00;;;;;;5059657;28;20613;-90
2022/06/19 06:16:05;;;;;;;13.60;10.70;;;25.70;1.00;;;;;;5068713;28;20500;-86
2022/06/19 06:18:32;;;;;;;13.40;10.23;;;25.80;1.00;;;;;;5070320;28;20459;-84
2022/06/19 06:21:07;;;;;;;10.50;9.50;;;25.90;1.00;;;;;;5070843;28;20525;-83
2022/06/19 06:23:34;;;;;;;11.47;10.33;;;26.10;1.00;;;;;;5072235;28;20427;-86
2022/06/19 06:26:09;;;;;;;13.20;9.67;;;26.10;1.00;;;;;;5072860;28;20493;-86
2022/06/19 06:28:39;;;;;;;12.07;9.83;;;26.20;1.00;;;;;;5067419;28;20555;-83
2022/06/19 06:31:07;;;;;;;11.90;10.10;;;26.30;1.00;;;;;;5061793;28;20480;-84
2022/06/19 06:33:35;;;;;;;11.13;9.93;;;26.40;1.00;;;;;;5069738;28;20423;-85
2022/06/19 06:36:05;;;;;;;10.17;9.27;;;26.50;1.00;;;;;;5064825;28;20448;-85
2022/06/19 06:38:32;;;;;;;11.03;9.80;;;26.70;1.00;;;;;;5065023;28;20523;-86
2022/06/19 06:41:05;;;;;;;10.13;9.10;;;26.80;1.00;;;;;;5063492;28;20502;-87
2022/06/19 06:43:35;;;;;;;11.60;10.40;;;26.90;1.00;;;;;;5066253;28;20463;-86
2022/06/19 06:46:05;;;;;;;13.73;8.83;;;27.10;1.00;;;;;;5073446;28;20435;-89
2022/06/19 06:48:32;;;;;;;11.03;9.10;;;27.20;1.00;;;;;;5070996;28;20542;-86
2022/06/19 06:51:06;;;;;;;13.97;9.77;;;27.30;1.00;;;;;;5074450;28;20436;-86
2022/06/19 06:53:33;;;;;;;11.20;10.00;;;27.40;1.00;;;;;;5072567;28;20463;-80
2022/06/19 06:56:05;;;;;;;10.60;9.60;;;27.40;1.00;;;;;;5065476;28;20445;-84
2022/06/19 06:58:34;;;;;;;9.77;8.83;;;27.50;1.00;;;;;;5068303;28;20448;-78
2022/06/19 07:01:07;;;;;;;11.53;8.83;;;27.50;1.00;;;;;;5069543;28;20504;-82
2022/06/19 07:03:35;;;;;;;11.07;9.40;;;27.60;1.00;;;;;;5074529;28;20466;-88
2022/06/19 07:06:07;;;;;;;9.27;8.20;;;27.80;1.00;;;;;;5071953;28;20445;-86
2022/06/19 07:08:35;;;;;;;13.47;9.63;;;27.90;1.00;;;;;;5069692;28;20581;-89
2022/06/19 07:11:08;;;;;;;8.10;7.37;;;28.10;1.00;;;;;;5071849;28;20482;-87
2022/06/19 07:13:43;;;;;;;13.80;10.00;;;28.30;1.00;;;;;;5070109;28;20458;-87
2022/06/19 07:16:14;;;;;;;9.00;8.10;;;28.30;1.00;;;;;;5066860;28;20443;-86
2022/06/19 07:18:47;;;;;;;9.10;8.10;;;28.50;1.00;;;;;;5070826;28;20427;-85
2022/06/19 07:21:15;;;;;;;12.20;9.00;;;28.70;1.00;;;;;;5069786;28;20451;-84
2022/06/19 07:23:45;;;;;;;12.40;8.37;;;28.80;1.00;;;;;;5072726;28;20435;-81
2022/06/19 07:26:13;;;;;;;12.93;9.30;;;28.90;1.00;;;;;;5069282;28;20894;-87
2022/06/19 07:28:46;;;;;;;12.20;9.07;;;28.90;1.00;;;;;;5058405;28;20428;-82
2022/06/19 07:31:14;;;;;;;12.43;8.03;;;29.00;1.00;;;;;;5067926;28;20456;-79
2022/06/19 07:33:44;;;;;;;9.57;7.80;;;29.10;1.00;;;;;;5073668;28;20444;-84
2022/06/19 07:36:17;;;;;;;11.03;8.20;;;29.20;1.00;;;;;;5078525;28;21016;-87
2022/06/19 07:38:45;;;;;;;13.63;8.50;;;29.20;1.00;;;;;;5077953;28;20458;-86
2022/06/19 07:41:13;;;;;;;12.50;8.30;;;29.30;1.00;;;;;;5074039;28;20463;-89
2022/06/19 07:43:49;;;;;;;12.40;7.80;;;29.50;1.00;;;;;;5072644;28;20464;-80
2022/06/19 07:46:16;;;;;;;12.63;9.30;;;29.60;1.00;;;;;;5074588;28;20428;-87
2022/06/19 07:51:31;;;;;;;9.70;8.17;;;30.00;1.00;;;;;;5073273;28;20463;-88
2022/06/19 07:54:03;;;;;;;11.77;8.10;;;30.20;1.00;;;;;;5071483;28;20590;-79
2022/06/19 07:56:30;;;;;;;15.57;7.40;;;30.30;1.00;;;;;;5074392;28;20490;-80
2022/06/19 07:59:03;;;;;;;10.20;6.90;;;30.30;1.00;;;;;;5073628;28;20544;-83
2022/06/19 08:01:30;;;;;;;10.50;6.80;;;30.50;1.00;;;;;;5074353;28;20467;-86
2022/06/19 08:04:08;;;;;;;8.73;7.20;;;30.60;1.00;;;;;;5078110;28;20537;-80
2022/06/19 08:06:35;;;;;;;12.17;7.10;;;30.80;1.00;;;;;;5078632;28;20481;-83
2022/06/19 08:09:05;;;;;;;14.20;7.20;;;31.00;1.00;;;;;;5081168;28;20435;-86
2022/06/19 08:11:32;;;;;;;8.77;5.97;;;31.30;1.00;;;;;;5079808;28;21007;-82
2022/06/19 08:14:07;;;;;;;10.73;5.70;;;31.50;1.00;;;;;;5080003;28;22100;-81
2022/06/19 08:16:34;;;;;;;9.53;6.20;;;31.70;1.00;;;;;;5066738;28;20472;-82
2022/06/19 08:19:05;;;;;;;15.33;5.90;;;31.90;1.00;;;;;;5070061;28;20416;-82
2022/06/19 08:21:32;;;;;;;10.60;6.20;;;32.10;1.00;;;;;;5069962;28;20921;-83
2022/06/19 08:24:03;;;;;;;11.00;5.60;;;32.30;1.00;;;;;;5076506;27;20414;-84
2022/06/19 08:26:31;;;;;;;9.43;5.60;;;32.30;1.00;;;;;;5079700;28;20442;-88
2022/06/19 08:29:03;;;;;;;9.40;5.80;;;32.50;1.00;;;;;;5067497;28;20969;-83
2022/06/19 08:31:34;;;;;;;8.47;5.00;;;32.50;1.00;;;;;;5070348;28;20479;-81
2022/06/19 08:34:05;;;;;;;12.10;6.13;;;32.50;1.00;;;;;;5073064;28;20402;-81
2022/06/19 08:36:35;;;;;;;7.27;4.93;;;32.50;1.00;;;;;;5078421;28;20558;-86
2022/06/19 08:39:11;;;;;;;10.30;5.67;;;32.60;1.00;;;;;;5076646;28;20463;-85
2022/06/19 08:42:11;;;;;;;64.13;13.03;;;32.70;1.00;;;;;;5074690;28;20911;-77
2022/06/19 08:45:12;;;;;;;8.17;4.80;;;32.90;1.00;;;;;;5073630;28;20464;-80
2022/06/19 08:48:22;;;;;;;7.07;5.47;;;33.10;1.00;;;;;;5073577;28;20467;-79
2022/06/19 08:50:57;;;;;;;13.40;4.90;;;33.30;1.00;;;;;;5066577;28;20471;-81
2022/06/19 08:53:44;;;;;;;14.13;6.03;;;33.40;1.00;;;;;;5073647;28;20495;-85
2022/06/19 08:56:23;;;;;;;15.20;5.63;;;33.70;1.00;;;;;;5073317;28;20483;-85
2022/06/19 08:58:57;;;;;;;8.67;5.87;;;33.70;1.00;;;;;;5072506;28;20475;-84
2022/06/19 09:01:32;;;;;;;9.53;5.37;;;33.80;1.00;;;;;;5074699;28;20411;-85
2022/06/19 09:07:15;;;;;;;8.20;5.73;;;33.80;1.00;;;;;;5049812;28;20509;-87
2022/06/19 09:09:56;;;;;;;6.90;5.10;;;33.90;1.00;;;;;;5073016;28;20691;-82
2022/06/19 09:12:37;;;;;;;15.47;5.67;;;34.10;1.00;;;;;;5071907;28;20436;-84
2022/06/19 09:15:12;;;;;;;7.87;5.30;;;34.10;1.00;;;;;;5066805;28;20440;-80
2022/06/19 09:17:54;;;;;;;10.10;5.10;;;34.30;1.00;;;;;;5064277;28;20451;-79
2022/06/19 09:20:35;;;;;;;12.10;5.93;;;34.60;1.00;;;;;;5076352;28;20518;-79
2022/06/19 09:23:46;;;;;;;17.07;6.00;;;34.70;1.00;;;;;;5068498;28;20430;-80
2022/06/19 09:26:28;;;;;;;11.80;5.70;;;34.80;1.00;;;;;;5056393;28;20463;-88
2022/06/19 09:29:04;;;;;;;11.03;5.53;;;34.90;1.00;;;;;;5082031;28;20499;-87
2022/06/19 09:31:44;;;;;;;10.70;5.53;;;35.10;1.00;;;;;;5067768;28;20471;-87
2022/06/19 09:34:17;;;;;;;14.00;6.07;;;35.30;1.00;;;;;;5071434;28;20491;-85
2022/06/19 09:36:54;;;;;;;14.00;5.37;;;35.50;1.00;;;;;;5075500;28;20550;-79
2022/06/19 09:39:34;;;;;;;14.50;6.27;;;35.80;1.00;;;;;;5069710;28;20447;-80
2022/06/19 09:42:13;;;;;;;17.70;6.40;;;36.30;1.00;;;;;;5071849;28;20466;-87
2022/06/19 09:44:51;;;;;;;11.23;5.10;;;37.10;1.00;;;;;;5068492;28;20536;-81
2022/06/19 09:47:27;;;;;;;20.07;7.40;;;37.80;1.00;;;;;;5060091;28;20475;-84
2022/06/19 09:50:05;;;;;;;16.10;5.80;;;38.50;1.00;;;;;;5065321;28;20498;-88
2022/06/19 09:52:44;;;;;;;9.57;5.70;;;39.40;1.00;;;;;;5077760;28;20447;-91
2022/06/19 09:55:16;;;;;;;13.23;6.70;;;39.90;1.00;;;;;;5078423;28;20433;-89
2022/06/19 09:57:51;;;;;;;14.30;7.40;;;40.10;1.00;;;;;;5077766;28;20429;-87
2022/06/19 10:00:27;;;;;;;19.50;7.80;;;40.40;1.00;;;;;;5072122;28;20474;-82
2022/06/19 10:02:57;;;;;;;25.77;9.17;;;40.50;1.00;;;;;;5071205;28;20474;-89
2022/06/19 10:05:34;;;;;;;15.70;9.77;;;41.00;1.00;;;;;;5076265;28;20475;-84
2022/06/19 10:08:10;;;;;;;14.90;8.33;;;41.10;1.00;;;;;;5069584;28;20422;-85
2022/06/19 10:10:44;;;;;;;15.33;8.10;;;40.90;1.00;;;;;;5070752;28;20534;-82
2022/06/19 10:13:17;;;;;;;14.40;8.70;;;41.20;1.00;;;;;;5073861;28;20981;-85
2022/06/19 10:15:47;;;;;;;15.53;9.37;;;41.30;1.00;;;;;;5073790;28;20432;-83
2022/06/19 10:18:25;;;;;;;12.00;8.00;;;41.70;1.00;;;;;;5070520;28;21353;-89
2022/06/19 10:21:04;;;;;;;12.63;7.43;;;41.90;1.00;;;;;;5073714;28;20488;-83
2022/06/19 10:23:48;;;;;;;14.87;8.40;;;42.40;1.00;;;;;;5075277;28;20491;-87
2022/06/19 10:26:33;;;;;;;15.53;5.60;;;42.90;1.00;;;;;;5069738;28;20459;-84
2022/06/19 10:29:22;;;;;;;14.30;5.10;;;43.60;1.00;;;;;;5070462;28;20554;-85
2022/06/19 10:32:02;;;;;;;8.03;5.30;;;43.60;1.00;;;;;;5069680;28;20465;-84
2022/06/19 10:34:43;;;;;;;11.27;5.60;;;43.30;1.00;;;;;;5065471;28;20437;-84
2022/06/19 10:37:19;;;;;;;14.83;6.23;;;43.50;1.00;;;;;;5066803;28;20456;-85
2022/06/19 10:40:03;;;;;;;12.90;5.80;;;43.80;1.00;;;;;;5070525;28;20464;-83
2022/06/19 10:42:45;;;;;;;12.20;4.97;;;44.10;1.00;;;;;;5067807;28;20462;-86
2022/06/19 10:45:38;;;;;;;13.90;5.80;;;43.70;1.00;;;;;;5071278;28;20558;-84
2022/06/19 10:48:27;;;;;;;12.70;5.60;;;43.70;1.00;;;;;;5068360;28;20479;-87
2022/06/19 10:51:09;;;;;;;15.80;5.47;;;43.40;1.00;;;;;;5052858;28;20788;-84
2022/06/19 10:53:56;;;;;;;16.40;6.13;;;43.90;1.00;;;;;;5075578;28;20437;-90
2022/06/19 10:56:41;;;;;;;9.97;4.97;;;43.90;1.00;;;;;;5074147;28;20443;-83
2022/06/19 10:59:09;;;;;;;14.70;5.83;;;43.80;1.00;;;;;;5075198;28;20579;-88
2022/06/19 11:04:35;;;;;;;15.60;5.97;;;44.10;1.00;;;;;;5073889;28;20416;-86
2022/06/19 11:07:10;;;;;;;13.10;5.87;;;44.40;1.00;;;;;;5076635;28;20432;-83
2022/06/19 11:09:42;;;;;;;12.77;6.10;;;44.80;1.00;;;;;;5074007;28;20434;-85
2022/06/19 11:12:33;;;;;;;15.53;5.83;;;45.20;1.00;;;;;;5072313;28;20447;-82
2022/06/19 11:15:05;;;;;;;7.27;4.80;;;45.70;1.00;;;;;;5070367;28;20431;-86
2022/06/19 11:17:37;;;;;;;10.97;5.63;;;45.80;1.00;;;;;;5079541;28;20558;-86
2022/06/19 11:20:26;;;;;;;11.30;5.30;;;45.90;1.00;;;;;;5072472;28;20487;-86
2022/06/19 11:23:06;;;;;;;11.30;5.93;;;46.20;1.00;;;;;;5074046;28;21033;-80
2022/06/19 11:25:37;;;;;;;11.23;4.70;;;46.40;1.00;;;;;;5071118;28;20456;-80
2022/06/19 11:28:10;;;;;;;12.30;5.73;;;46.40;1.00;;;;;;5079192;28;20447;-86
2022/06/19 11:30:44;;;;;;;11.43;4.93;;;46.00;1.00;;;;;;5076582;28;20572;-83
2022/06/19 11:33:16;;;;;;;11.17;5.97;;;46.00;1.00;;;;;;5072277;28;20854;-86
2022/06/19 11:35:50;;;;;;;8.60;4.83;;;46.20;1.00;;;;;;5077863;28;20414;-85
2022/06/19 11:38:32;;;;;;;14.67;5.30;;;46.60;1.00;;;;;;5076143;28;20462;-86
2022/06/19 11:41:00;;;;;;;9.67;4.73;;;47.00;1.00;;;;;;5078657;28;20439;-86
2022/06/19 11:43:31;;;;;;;10.70;5.30;;;47.20;1.00;;;;;;5073320;28;20989;-85
2022/06/19 11:46:06;;;;;;;12.90;5.80;;;47.70;1.00;;;;;;5074959;28;20803;-83
2022/06/19 11:48:33;;;;;;;9.93;5.90;;;47.70;1.00;;;;;;5072645;28;20511;-83
2022/06/19 11:51:14;;;;;;;10.10;6.00;;;47.40;1.00;;;;;;5076493;28;20539;-83
2022/06/19 11:53:45;;;;;;;11.13;6.00;;;47.20;1.00;;;;;;5072230;28;20446;-79
2022/06/19 11:56:27;;;;;;;18.30;6.30;;;46.80;1.00;;;;;;5074545;28;20451;-82
2022/06/19 11:58:58;;;;;;;13.60;5.43;;;45.80;1.00;;;;;;5072669;28;20554;-78
2022/06/19 12:01:37;;;;;;;11.57;5.00;;;45.80;1.00;;;;;;5076062;28;20435;-85
2022/06/19 12:04:16;;;;;;;13.03;6.60;;;46.30;1.00;;;;;;5072289;28;20435;-82
2022/06/19 12:06:50;;;;;;;10.93;5.87;;;46.60;1.00;;;;;;5073976;28;20427;-88
2022/06/19 12:09:30;;;;;;;10.53;6.47;;;47.20;1.00;;;;;;5082927;28;20661;-87
2022/06/19 12:12:09;;;;;;;10.63;7.37;;;47.10;1.00;;;;;;5078480;28;20537;-85
2022/06/19 12:14:53;;;;;;;10.00;6.40;;;47.20;1.00;;;;;;5076081;28;20668;-84
2022/06/19 12:17:26;;;;;;;9.60;7.10;;;47.10;1.00;;;;;;5074260;28;20486;-85
2022/06/19 12:20:04;;;;;;;7.50;6.70;;;46.70;1.00;;;;;;5069212;28;20478;-85
2022/06/19 12:22:38;;;;;;;9.03;6.80;;;46.60;1.00;;;;;;5068734;28;21829;-79
2022/06/19 12:25:12;;;;;;;9.27;5.83;;;46.90;1.00;;;;;;5069141;28;20455;-86
2022/06/19 12:27:48;;;;;;;8.50;7.10;;;46.20;1.00;;;;;;5072577;28;20479;-85
2022/06/19 12:30:24;;;;;;;8.37;6.37;;;45.30;1.00;;;;;;5071691;27;20455;-88
2022/06/19 12:32:53;;;;;;;11.13;6.50;;;44.70;1.00;;;;;;5071782;28;20430;-87
2022/06/19 12:35:32;;;;;;;8.37;6.90;;;44.80;1.00;;;;;;5074194;28;20509;-85
2022/06/19 12:37:59;;;;;;;9.67;5.93;;;44.80;1.00;;;;;;5071046;28;20637;-86
2022/06/19 12:40:41;;;;;;;6.60;6.00;;;44.80;1.00;;;;;;5073516;28;20971;-84
2022/06/19 12:43:17;;;;;;;8.00;6.33;;;44.70;1.00;;;;;;5062625;28;20545;-84
2022/06/19 12:45:54;;;;;;;11.33;6.70;;;44.10;1.00;;;;;;5067611;28;20497;-85
2022/06/19 12:48:35;;;;;;;10.00;6.17;;;44.20;1.00;;;;;;5069567;28;20455;-84
2022/06/19 12:51:08;;;;;;;9.07;5.63;;;44.00;1.00;;;;;;5068395;28;20454;-86
2022/06/19 12:54:12;;;;;;;8.43;6.00;;;44.20;1.00;;;;;;5064175;28;20451;-85
2022/06/19 12:56:52;;;;;;;8.53;5.67;;;44.50;1.00;;;;;;5039342;28;20460;-85
2022/06/19 12:59:37;;;;;;;7.73;6.13;;;44.30;1.00;;;;;;5067232;28;20463;-84
2022/06/19 13:02:14;;;;;;;8.10;5.63;;;43.10;1.00;;;;;;5065075;28;20650;-85
2022/06/19 13:04:55;;;;;;;10.80;5.80;;;42.20;1.00;;;;;;5061987;28;20558;-85
2022/06/19 13:07:33;;;;;;;8.70;5.70;;;42.50;1.00;;;;;;5063922;28;20451;-85
2022/06/19 13:10:27;;;;;;;10.90;5.90;;;42.70;1.00;;;;;;5065150;28;21222;-84
2022/06/19 13:13:10;;;;;;;8.37;5.90;;;42.70;1.00;;;;;;5062894;28;20464;-84
2022/06/19 13:15:54;;;;;;;10.10;6.00;;;41.60;1.00;;;;;;5065517;28;20467;-85
2022/06/19 13:18:35;;;;;;;10.70;5.87;;;40.90;1.00;;;;;;5063785;28;20462;-85
2022/06/19 13:21:09;;;;;;;9.80;5.83;;;41.50;1.00;;;;;;5062461;28;20482;-84
2022/06/19 13:23:44;;;;;;;9.93;6.57;;;42.10;1.00;;;;;;5065313;28;20984;-85
2022/06/19 13:29:25;;;;;;;12.97;5.97;;;43.40;1.00;;;;;;5061796;28;20938;-85
2022/06/19 13:31:58;;;;;;;11.43;5.23;;;43.10;1.00;;;;;;5068703;28;20467;-85
2022/06/19 13:34:35;;;;;;;10.67;5.40;;;42.50;1.00;;;;;;5067973;28;20995;-85